Time;durP1;ratioP1;P1;durP2;ratioP2;P2;SDS_P1;SDS_P2;PMS_P1;PMS_P2;Temp;Humidity;BMP_temperature;BMP_pressure;BME280_temperature;BME280_humidity;BME280_pressure;Samples;Min_cycle;Max_cycle;Signal;HPM_P1;HPM_P2
2022/03/08 00:01:22;;;;;;;10.30;7.60;;;;;;;14.42;48.85;101064.28;5074766;28;20044;-36
2022/03/08 00:03:47;;;;;;;8.73;7.35;;;;;;;14.36;48.16;101056.13;5073399;28;20032;-33
2022/03/08 00:06:13;;;;;;;12.90;7.40;;;;;;;14.29;47.64;101062.38;5073456;28;20024;-38
2022/03/08 00:08:40;;;;;;;10.25;7.50;;;;;;;14.16;47.32;101043.41;5074829;28;20031;-37
2022/03/08 00:11:06;;;;;;;9.20;7.50;;;;;;;14.18;47.64;101059.44;5074496;28;20074;-36
2022/03/08 00:13:32;;;;;;;15.30;7.60;;;;;;;14.13;47.16;101058.16;5074316;28;20041;-40
2022/03/08 00:15:58;;;;;;;10.90;7.82;;;;;;;14.08;47.56;101051.72;5074874;28;20055;-35
2022/03/08 00:18:23;;;;;;;11.60;7.65;;;;;;;14.04;47.36;101055.81;5073616;28;20025;-37
2022/03/08 00:20:49;;;;;;;9.23;6.95;;;;;;;14.01;47.68;101048.16;5074381;28;20035;-39
2022/03/08 00:23:15;;;;;;;9.93;8.10;;;;;;;13.92;47.54;101037.50;5074200;28;20035;-35
2022/03/08 00:25:41;;;;;;;8.00;7.22;;;;;;;13.91;47.55;101043.97;5074181;28;20028;-39
2022/03/08 00:28:07;;;;;;;10.75;7.88;;;;;;;13.83;47.60;101030.63;5074563;28;20020;-37
2022/03/08 00:30:33;;;;;;;8.10;7.30;;;;;;;13.78;47.58;101027.72;5073310;28;20418;-38
2022/03/08 00:32:59;;;;;;;8.73;7.30;;;;;;;13.78;47.96;101021.44;5073291;28;20025;-37
2022/03/08 00:35:25;;;;;;;10.95;8.38;;;;;;;13.77;47.95;101027.91;5072887;28;20032;-37
2022/03/08 00:37:55;;;;;;;9.07;7.85;;;;;;;13.74;48.44;101021.03;5073411;28;20032;-35
2022/03/08 00:40:23;;;;;;;8.80;7.90;;;;;;;13.66;47.88;101015.81;5072844;28;20036;-33
2022/03/08 00:42:50;;;;;;;8.73;7.82;;;;;;;13.67;48.36;101023.72;5072579;28;20033;-33
2022/03/08 00:45:16;;;;;;;10.07;7.70;;;;;;;13.64;48.08;101016.00;5074060;28;20392;-33
2022/03/08 00:47:42;;;;;;;9.07;8.20;;;;;;;13.61;48.17;101012.88;5074158;28;20036;-36
2022/03/08 00:50:12;;;;;;;9.75;7.85;;;;;;;13.51;48.23;101007.84;5075229;28;20028;-33
2022/03/08 00:52:38;;;;;;;8.95;8.02;;;;;;;13.55;48.45;101009.09;5054780;28;20052;-34
2022/03/08 00:55:06;;;;;;;10.02;7.47;;;;;;;13.52;48.55;101009.50;5053925;28;20028;-40
2022/03/08 00:57:32;;;;;;;10.40;8.50;;;;;;;13.41;48.77;101000.13;5053883;28;20031;-38
2022/03/08 00:59:58;;;;;;;8.93;7.97;;;;;;;13.45;48.42;101003.25;5053800;28;20033;-35
2022/03/08 01:02:24;;;;;;;10.23;7.82;;;;;;;13.43;48.69;100999.91;5053633;28;20040;-36
2022/03/08 01:04:50;;;;;;;9.57;8.63;;;;;;;13.34;48.58;100985.75;5036065;28;20044;-38
2022/03/08 01:07:17;;;;;;;9.60;8.60;;;;;;;13.36;48.72;100995.31;5052750;28;20029;-37
2022/03/08 01:09:43;;;;;;;10.98;8.18;;;;;;;13.35;49.06;100990.09;5036255;28;20056;-39
2022/03/08 01:12:09;;;;;;;8.93;8.13;;;;;;;13.29;48.85;100980.09;5053587;28;20525;-36
2022/03/08 01:14:35;;;;;;;9.05;8.15;;;;;;;13.26;49.22;100973.25;5053848;28;20037;-36
2022/03/08 01:17:01;;;;;;;9.50;7.93;;;;;;;13.24;49.23;100980.69;5053655;28;20036;-36
2022/03/08 01:19:27;;;;;;;10.30;8.57;;;;;;;13.25;49.01;100981.53;5053832;28;20025;-39
2022/03/08 01:21:52;;;;;;;8.93;8.15;;;;;;;13.15;49.07;100973.78;5053909;28;20032;-36
2022/03/08 01:24:18;;;;;;;9.55;7.97;;;;;;;13.19;49.33;100980.44;5053651;28;20480;-34
2022/03/08 01:26:44;;;;;;;9.57;8.63;;;;;;;13.14;49.25;100966.72;5053586;28;20047;-38
2022/03/08 01:29:10;;;;;;;10.75;8.90;;;;;;;13.15;49.20;100973.78;5035427;28;20433;-37
2022/03/08 01:31:35;;;;;;;12.88;8.35;;;;;;;13.13;49.58;100965.03;5053753;28;20029;-37
2022/03/08 01:34:02;;;;;;;9.55;8.15;;;;;;;13.10;49.42;100962.75;5053313;28;20039;-38
2022/03/08 01:36:28;;;;;;;10.57;9.48;;;;;;;13.06;49.35;100956.09;5053959;28;20033;-34
2022/03/08 01:38:54;;;;;;;10.05;8.60;;;;;;;13.07;49.40;100958.56;5035738;28;20120;-36
2022/03/08 01:41:20;;;;;;;10.82;8.65;;;;;;;13.05;49.54;100955.25;5019037;28;20056;-37
2022/03/08 01:43:47;;;;;;;9.63;8.63;;;;;;;13.03;49.39;100948.41;5053444;28;20366;-34
2022/03/08 01:46:15;;;;;;;12.32;9.30;;;;;;;13.01;49.50;100951.28;5053296;28;20029;-37
2022/03/08 01:48:41;;;;;;;10.38;9.30;;;;;;;12.95;49.91;100946.69;5053576;28;20133;-40
2022/03/08 01:51:07;;;;;;;9.88;7.95;;;;;;;12.92;50.16;100947.09;5053188;28;20075;-36
2022/03/08 01:53:34;;;;;;;9.75;8.85;;;;;;;12.95;49.85;100944.00;5035261;28;20731;-37
2022/03/08 01:56:00;;;;;;;10.23;9.02;;;;;;;12.91;49.74;100938.16;5053343;28;20036;-36
2022/03/08 01:58:26;;;;;;;11.38;8.95;;;;;;;12.90;49.98;100941.06;5035309;28;20021;-38
2022/03/08 02:00:52;;;;;;;10.25;9.30;;;;;;;12.86;49.78;100931.72;5053578;28;20039;-35
2022/03/08 02:03:17;;;;;;;10.70;9.68;;;;;;;12.87;49.68;100934.22;5053210;28;20120;-33
2022/03/08 02:05:43;;;;;;;9.05;8.15;;;;;;;12.86;49.75;100929.84;5053477;28;20044;-38
2022/03/08 02:08:09;;;;;;;9.68;8.68;;;;;;;12.84;49.87;100926.50;5053128;28;20033;-39
2022/03/08 02:10:35;;;;;;;11.63;9.48;;;;;;;12.83;50.22;100927.53;5035452;28;20089;-35
2022/03/08 02:13:00;;;;;;;10.98;9.70;;;;;;;12.78;50.07;100928.13;5053353;28;20052;-39
2022/03/08 02:15:28;;;;;;;12.20;8.95;;;;;;;12.76;50.08;100919.41;5053204;28;20484;-38
2022/03/08 02:17:57;;;;;;;9.48;8.57;;;;;;;12.77;50.15;100921.06;5036587;28;20044;-34
2022/03/08 02:20:23;;;;;;;9.82;8.63;;;;;;;12.76;50.40;100918.59;5038688;28;20033;-34
2022/03/08 02:22:50;;;;;;;9.98;9.05;;;;;;;12.74;49.99;100915.22;5056584;28;20388;-38
2022/03/08 02:25:17;;;;;;;10.38;9.40;;;;;;;12.73;50.41;100919.78;5056691;28;20070;-35
2022/03/08 02:27:46;;;;;;;10.57;9.48;;;;;;;12.65;50.18;100908.31;5039035;28;20038;-36
2022/03/08 02:30:14;;;;;;;11.93;9.55;;;;;;;12.67;50.44;100909.81;5039208;28;20378;-38
2022/03/08 02:32:41;;;;;;;11.93;10.20;;;;;;;12.66;50.32;100910.81;5006041;28;20021;-39
2022/03/08 02:35:09;;;;;;;10.63;9.52;;;;;;;12.58;49.99;100890.25;5039160;28;20036;-38
2022/03/08 02:37:48;;;;;;;10.35;9.50;;;;;;;12.63;50.83;100889.69;5056776;28;20029;-36
2022/03/08 02:40:18;;;;;;;11.20;10.02;;;;;;;12.55;50.55;100884.44;5056445;28;20033;-39
2022/03/08 02:42:44;;;;;;;16.75;9.65;;;;;;;12.58;50.51;100878.66;5022357;28;20039;-37
2022/03/08 02:45:11;;;;;;;12.50;9.75;;;;;;;12.58;50.47;100886.75;5038388;28;20500;-35
2022/03/08 02:47:37;;;;;;;11.18;9.45;;;;;;;12.56;50.46;100881.53;5056203;28;20421;-34
2022/03/08 02:50:06;;;;;;;11.23;10.13;;;;;;;12.48;50.87;100862.84;5056255;28;20515;-38
2022/03/08 02:52:33;;;;;;;11.90;10.52;;;;;;;12.54;51.01;100870.13;5056058;28;20053;-34
2022/03/08 02:54:59;;;;;;;11.13;10.13;;;;;;;12.47;50.42;100853.09;5056141;28;20033;-37
2022/03/08 02:57:25;;;;;;;10.82;9.75;;;;;;;12.53;50.61;100867.63;5037997;28;20420;-38
2022/03/08 02:59:51;;;;;;;11.40;9.93;;;;;;;12.51;50.76;100859.75;5055843;28;20112;-35
2022/03/08 03:02:17;;;;;;;10.68;9.68;;;;;;;12.49;50.64;100859.09;5056115;28;20021;-36
2022/03/08 03:04:43;;;;;;;11.30;10.20;;;;;;;12.46;50.79;100850.59;5056115;28;20036;-35
2022/03/08 03:07:08;;;;;;;11.05;9.88;;;;;;;12.48;50.71;100852.06;5055800;28;20095;-34
2022/03/08 03:09:34;;;;;;;10.70;9.70;;;;;;;12.46;50.69;100837.13;5055620;28;20047;-37
2022/03/08 03:12:00;;;;;;;10.10;9.07;;;;;;;12.46;51.12;100845.19;5021482;28;20115;-39
2022/03/08 03:14:26;;;;;;;11.25;10.00;;;;;;;12.40;50.93;100836.03;5055953;28;20031;-34
2022/03/08 03:16:52;;;;;;;11.77;10.57;;;;;;;12.42;51.00;100831.28;5038056;28;20459;-36
2022/03/08 03:19:17;;;;;;;11.23;10.13;;;;;;;12.44;51.17;100829.22;5056010;28;20028;-35
2022/03/08 03:21:43;;;;;;;12.50;9.43;;;;;;;12.38;51.37;100820.06;5055939;28;20082;-33
2022/03/08 03:24:10;;;;;;;9.82;8.98;;;;;;;12.43;51.24;100821.38;5021044;28;20025;-35
2022/03/08 03:26:35;;;;;;;10.73;9.73;;;;;;;12.40;51.52;100830.66;5021538;28;20108;-38
2022/03/08 03:29:01;;;;;;;12.18;11.02;;;;;;;12.36;51.75;100805.16;5036975;28;20572;-40
2022/03/08 03:31:27;;;;;;;11.90;10.18;;;;;;;12.32;51.70;100799.31;5055419;28;20029;-39
2022/03/08 03:33:53;;;;;;;10.02;9.02;;;;;;;12.40;51.42;100814.50;5055550;28;20036;-36
2022/03/08 03:36:18;;;;;;;11.60;10.38;;;;;;;12.34;51.30;100799.13;5054954;28;20377;-38
2022/03/08 03:38:44;;;;;;;12.13;10.93;;;;;;;12.36;51.27;100807.84;5037737;28;20041;-35
2022/03/08 03:41:10;;;;;;;9.90;8.85;;;;;;;12.37;51.61;100804.94;5055147;28;20100;-39
2022/03/08 03:43:36;;;;;;;11.38;10.20;;;;;;;12.35;51.45;100804.31;5055167;28;20477;-37
2022/03/08 03:46:04;;;;;;;13.60;11.13;;;;;;;12.36;51.79;100802.44;5055092;28;20037;-34
2022/03/08 03:48:30;;;;;;;11.02;9.93;;;;;;;12.35;51.56;100803.47;5055152;28;20489;-35
2022/03/08 03:50:56;;;;;;;11.10;10.02;;;;;;;12.35;51.51;100792.69;5026501;28;20048;-35
2022/03/08 03:53:22;;;;;;;12.35;11.05;;;;;;;12.31;52.11;100784.22;5075129;28;20513;-40
2022/03/08 03:55:48;;;;;;;9.68;8.77;;;;;;;12.33;51.61;100786.69;5074587;28;20109;-35
2022/03/08 03:58:14;;;;;;;11.95;10.07;;;;;;;12.34;51.59;100786.47;5074849;28;20032;-35
2022/03/08 04:00:40;;;;;;;10.27;9.35;;;;;;;12.28;51.80;100773.00;5074534;28;20090;-35
2022/03/08 04:03:05;;;;;;;11.32;10.23;;;;;;;12.26;51.86;100770.50;5074649;28;20028;-39
2022/03/08 04:05:31;;;;;;;12.52;11.25;;;;;;;12.33;51.56;100778.59;5074473;28;20504;-35
2022/03/08 04:07:57;;;;;;;13.02;11.05;;;;;;;12.33;52.00;100781.28;5074365;28;20079;-35
2022/03/08 04:10:23;;;;;;;12.80;11.40;;;;;;;12.30;51.77;100773.63;5074663;28;20036;-38
2022/03/08 04:12:48;;;;;;;11.90;10.80;;;;;;;12.32;51.87;100779.66;5074642;28;20078;-39
2022/03/08 04:15:14;;;;;;;12.82;11.63;;;;;;;12.26;51.74;100765.09;5074636;28;20082;-34
2022/03/08 04:17:40;;;;;;;13.55;10.73;;;;;;;12.22;51.57;100755.78;5074835;28;20115;-36
2022/03/08 04:20:08;;;;;;;12.88;11.57;;;;;;;12.30;51.93;100769.06;5073228;28;20029;-38
2022/03/08 04:22:34;;;;;;;13.10;11.10;;;;;;;12.29;51.53;100759.31;5073344;28;20032;-36
2022/03/08 04:25:00;;;;;;;13.60;12.27;;;;;;;12.30;51.56;100765.53;5074538;28;20350;-35
2022/03/08 04:27:26;;;;;;;14.27;12.05;;;;;;;12.30;51.73;100760.16;5073137;28;20035;-37
2022/03/08 04:29:51;;;;;;;12.43;11.18;;;;;;;12.30;51.95;100752.09;5074140;28;20028;-35
2022/03/08 04:32:18;;;;;;;12.07;10.98;;;;;;;12.28;51.98;100757.66;5074060;28;20033;-35
2022/03/08 04:34:44;;;;;;;9.63;8.75;;;;;;;12.29;51.77;100756.63;5073085;28;20028;-34
2022/03/08 04:37:10;;;;;;;13.98;12.40;;;;;;;12.28;52.19;100752.28;5056336;28;20457;-36
2022/03/08 04:39:35;;;;;;;13.38;11.45;;;;;;;12.26;51.80;100746.25;5055848;28;20081;-38
2022/03/08 04:42:01;;;;;;;11.30;10.23;;;;;;;12.28;52.02;100754.97;5073143;28;20070;-36
2022/03/08 04:44:27;;;;;;;11.15;10.05;;;;;;;12.26;51.58;100748.09;5074247;28;20099;-36
2022/03/08 04:46:53;;;;;;;13.02;10.57;;;;;;;12.26;52.19;100751.66;5074221;28;20043;-38
2022/03/08 04:49:19;;;;;;;12.52;11.23;;;;;;;12.24;51.80;100748.31;5056124;28;20028;-35
2022/03/08 04:51:45;;;;;;;12.15;10.30;;;;;;;12.26;51.92;100743.56;5062352;28;20045;-37
2022/03/08 04:54:11;;;;;;;14.38;11.32;;;;;;;12.26;51.55;100743.56;5019384;28;20033;-36
2022/03/08 04:56:36;;;;;;;13.20;11.93;;;;;;;12.27;51.75;100744.38;5036053;28;20029;-36
2022/03/08 04:59:04;;;;;;;13.10;11.73;;;;;;;12.17;51.39;100729.41;5054102;28;20435;-35
2022/03/08 05:01:30;;;;;;;12.13;11.00;;;;;;;12.25;51.57;100743.75;5053762;28;20037;-38
2022/03/08 05:03:56;;;;;;;14.07;9.68;;;;;;;12.21;51.78;100729.84;5053638;28;20033;-38
2022/03/08 05:06:22;;;;;;;11.73;10.52;;;;;;;12.00;52.15;100696.59;5053605;28;20436;-39
2022/03/08 05:08:48;;;;;;;13.65;12.20;;;;;;;12.23;51.71;100732.34;5035361;28;20064;-37
2022/03/08 05:11:14;;;;;;;18.58;12.18;;;;;;;12.15;51.56;100725.28;5053700;28;20029;-34
2022/03/08 05:13:40;;;;;;;12.60;11.07;;;;;;;12.23;51.87;100735.06;5035900;28;20025;-34
2022/03/08 05:16:05;;;;;;;13.95;12.13;;;;;;;12.16;51.89;100727.75;5035650;28;20036;-33
2022/03/08 05:18:31;;;;;;;15.32;12.48;;;;;;;12.24;51.96;100742.94;5053584;28;20515;-34
2022/03/08 05:20:57;;;;;;;13.48;12.18;;;;;;;12.23;51.78;100737.75;5053579;28;20033;-38
2022/03/08 05:23:23;;;;;;;13.40;12.05;;;;;;;12.23;51.44;100741.25;5035941;28;20025;-37
2022/03/08 05:25:49;;;;;;;15.30;11.68;;;;;;;12.20;51.97;100733.56;5053890;28;20120;-33
2022/03/08 05:28:15;;;;;;;14.38;11.95;;;;;;;12.20;51.77;100737.09;5053289;28;20036;-37
2022/03/08 05:30:41;;;;;;;13.73;12.20;;;;;;;12.23;51.42;100746.66;5053656;28;20071;-37
2022/03/08 05:33:07;;;;;;;13.45;12.05;;;;;;;12.23;51.46;100749.34;5054006;28;20051;-36
2022/03/08 05:35:33;;;;;;;13.27;11.90;;;;;;;12.15;51.85;100730.66;5035887;28;20466;-38
2022/03/08 05:37:58;;;;;;;13.55;12.13;;;;;;;12.18;51.74;100738.31;5053441;28;20389;-37
2022/03/08 05:40:24;;;;;;;14.13;12.20;;;;;;;12.21;51.96;100737.94;5053807;28;20033;-38
2022/03/08 05:42:50;;;;;;;13.63;11.15;;;;;;;12.14;51.66;100735.19;5035803;28;20463;-38
2022/03/08 05:45:16;;;;;;;12.02;10.82;;;;;;;12.16;51.37;100725.03;5035495;28;20029;-37
2022/03/08 05:47:42;;;;;;;11.38;10.27;;;;;;;12.20;51.38;100739.81;5053213;28;20033;-38
2022/03/08 05:50:09;;;;;;;14.00;11.95;;;;;;;12.20;51.42;100731.72;5036054;28;20055;-37
2022/03/08 05:52:35;;;;;;;11.93;10.60;;;;;;;12.20;51.86;100717.41;5054427;28;20049;-37
2022/03/08 05:55:02;;;;;;;13.15;11.80;;;;;;;12.14;51.58;100705.56;5057360;28;20029;-37
2022/03/08 05:57:28;;;;;;;14.75;12.77;;;;;;;12.18;51.81;100709.56;5057786;28;20076;-37
2022/03/08 05:59:54;;;;;;;12.90;11.55;;;;;;;12.18;51.46;100714.09;5057491;28;20546;-34
2022/03/08 06:02:21;;;;;;;15.27;12.55;;;;;;;12.19;51.86;100708.50;5057083;28;20401;-35
2022/03/08 06:04:47;;;;;;;15.15;13.40;;;;;;;12.18;51.39;100711.41;5057073;28;20029;-33
2022/03/08 06:07:13;;;;;;;11.48;10.27;;;;;;;12.17;51.86;100709.75;5055680;28;20025;-33
2022/03/08 06:09:39;;;;;;;13.55;12.15;;;;;;;12.19;51.37;100713.06;5057107;28;20054;-36
2022/03/08 06:12:05;;;;;;;14.93;12.27;;;;;;;12.06;51.40;100686.06;5039372;28;20037;-38
2022/03/08 06:14:31;;;;;;;13.80;12.27;;;;;;;12.18;51.27;100714.94;5057184;28;20557;-34
2022/03/08 06:16:57;;;;;;;13.13;11.82;;;;;;;12.16;51.28;100710.75;5039102;28;20037;-35
2022/03/08 06:19:24;;;;;;;13.70;11.80;;;;;;;12.17;51.78;100701.66;5039173;28;20032;-36
2022/03/08 06:21:51;;;;;;;14.40;12.82;;;;;;;12.11;51.64;100706.00;5056669;28;20396;-39
2022/03/08 06:24:17;;;;;;;13.70;11.95;;;;;;;12.14;51.74;100718.22;5056705;28;20036;-35
2022/03/08 06:26:43;;;;;;;15.55;13.10;;;;;;;12.14;51.05;100708.25;5056656;28;20385;-37
2022/03/08 06:29:09;;;;;;;13.13;11.82;;;;;;;12.15;51.43;100704.56;5056668;28;20024;-38
2022/03/08 06:31:36;;;;;;;14.27;12.77;;;;;;;12.14;51.52;100705.56;5056714;28;20543;-38
2022/03/08 06:34:02;;;;;;;14.85;13.35;;;;;;;12.14;51.07;100702.88;5056713;28;20115;-38
2022/03/08 06:36:28;;;;;;;14.95;12.85;;;;;;;12.13;51.82;100703.09;5056438;28;20470;-34
2022/03/08 06:38:54;;;;;;;14.48;12.93;;;;;;;12.12;51.27;100707.63;5038527;28;20032;-36
2022/03/08 06:41:20;;;;;;;13.68;10.90;;;;;;;12.13;50.87;100706.63;5056393;28;20420;-33
2022/03/08 06:43:45;;;;;;;13.57;12.18;;;;;;;12.12;51.14;100698.72;5038562;28;20061;-35
2022/03/08 06:46:11;;;;;;;12.30;10.88;;;;;;;12.11;51.29;100697.91;5056254;28;20079;-35
2022/03/08 06:48:38;;;;;;;13.52;12.13;;;;;;;12.13;51.18;100700.41;5056419;28;20413;-37
2022/03/08 06:51:04;;;;;;;13.90;12.40;;;;;;;12.13;51.17;100697.72;5029347;28;20044;-37
2022/03/08 06:53:30;;;;;;;13.43;11.25;;;;;;;11.91;51.10;100668.19;5075438;28;20034;-34
2022/03/08 06:55:56;;;;;;;13.68;12.32;;;;;;;12.07;51.06;100699.34;5076425;28;20143;-38
2022/03/08 06:58:22;;;;;;;18.48;13.57;;;;;;;12.14;51.12;100710.13;5076195;28;20468;-35
2022/03/08 07:00:48;;;;;;;14.02;12.55;;;;;;;12.14;50.97;100704.75;5075824;28;20032;-36
2022/03/08 07:03:14;;;;;;;12.35;11.13;;;;;;;12.07;51.29;100696.66;5076438;28;20056;-35
2022/03/08 07:05:40;;;;;;;13.93;12.52;;;;;;;12.13;50.87;100695.03;5074951;28;20460;-33
2022/03/08 07:08:10;;;;;;;11.40;10.30;;;;;;;12.14;50.93;100705.56;5076117;28;20457;-35
2022/03/08 07:10:36;;;;;;;13.63;11.13;;;;;;;12.17;51.12;100704.38;5076490;28;20169;-36
2022/03/08 07:13:03;;;;;;;14.02;12.02;;;;;;;12.23;50.69;100708.13;5076809;28;20029;-39
2022/03/08 07:15:29;;;;;;;12.25;10.52;;;;;;;12.31;50.78;100711.50;5076044;28;20025;-35
2022/03/08 07:17:55;;;;;;;12.50;11.40;;;;;;;12.39;50.59;100707.81;5074886;28;20028;-36
2022/03/08 07:20:21;;;;;;;10.68;9.68;;;;;;;12.46;50.42;100708.66;5074909;28;20044;-34
2022/03/08 07:22:48;;;;;;;11.57;10.55;;;;;;;12.54;50.38;100705.78;5076137;28;20039;-33
2022/03/08 07:25:15;;;;;;;10.82;9.85;;;;;;;12.63;50.40;100698.38;5074949;28;20372;-36
2022/03/08 07:27:41;;;;;;;12.30;11.00;;;;;;;12.70;50.19;100703.78;5075856;28;20021;-37
2022/03/08 07:30:08;;;;;;;12.52;10.75;;;;;;;12.65;49.98;100684.69;5075731;28;20373;-37
2022/03/08 07:32:34;;;;;;;11.50;10.55;;;;;;;12.83;49.76;100708.38;5058320;28;20028;-39
2022/03/08 07:35:01;;;;;;;12.00;10.75;;;;;;;12.88;49.54;100712.13;5074879;28;20031;-34
2022/03/08 07:37:35;;;;;;;11.25;9.90;;;;;;;12.94;49.69;100703.22;5075971;28;20020;-35
2022/03/08 07:40:01;;;;;;;12.20;11.10;;;;;;;13.00;49.60;100703.44;5074071;28;20024;-39
2022/03/08 07:42:27;;;;;;;11.70;10.52;;;;;;;13.08;49.41;100708.66;5074204;28;20032;-36
2022/03/08 07:44:54;;;;;;;11.15;10.05;;;;;;;13.14;49.05;100707.84;5075335;28;20033;-34
2022/03/08 07:47:21;;;;;;;9.95;9.13;;;;;;;13.19;49.21;100710.75;5075671;28;20028;-38
2022/03/08 07:49:46;;;;;;;10.40;9.30;;;;;;;13.18;49.20;100693.72;5076109;28;20477;-35
2022/03/08 07:52:13;;;;;;;9.98;8.77;;;;;;;13.29;49.22;100705.78;5060179;28;20045;-36
2022/03/08 07:54:39;;;;;;;10.10;9.10;;;;;;;13.32;48.75;100694.63;5054810;28;20481;-35
2022/03/08 07:57:04;;;;;;;10.57;9.68;;;;;;;13.35;48.94;100705.00;5037272;28;20064;-37
2022/03/08 07:59:31;;;;;;;9.55;8.75;;;;;;;13.42;49.07;100702.31;5037337;28;20476;-37
2022/03/08 08:01:57;;;;;;;9.70;8.85;;;;;;;13.45;49.31;100706.47;5055130;28;20037;-35
2022/03/08 08:04:23;;;;;;;9.20;8.40;;;;;;;13.50;48.62;100710.22;5055737;28;20461;-35
2022/03/08 08:06:50;;;;;;;9.32;8.35;;;;;;;13.54;48.76;100716.03;5055119;28;20064;-34
2022/03/08 08:09:16;;;;;;;10.52;9.43;;;;;;;13.58;48.86;100709.16;5055196;28;20112;-36
2022/03/08 08:11:43;;;;;;;8.68;7.88;;;;;;;13.64;48.56;100713.72;5055275;28;20076;-36
2022/03/08 08:14:09;;;;;;;9.45;8.60;;;;;;;13.63;48.51;100700.44;5036821;28;20021;-38
2022/03/08 08:16:35;;;;;;;10.35;9.35;;;;;;;13.71;48.14;100709.16;5019994;28;20120;-38
2022/03/08 08:19:00;;;;;;;8.98;8.15;;;;;;;13.71;47.43;100706.47;5036862;28;20036;-38
2022/03/08 08:21:26;;;;;;;10.88;9.43;;;;;;;13.70;46.84;100707.50;5036135;28;20492;-36
2022/03/08 08:23:53;;;;;;;12.98;9.45;;;;;;;13.68;47.36;100701.47;5054614;28;20025;-38
2022/03/08 08:26:19;;;;;;;8.95;8.05;;;;;;;13.67;46.90;100698.97;5054577;28;20067;-40
2022/03/08 08:28:44;;;;;;;9.80;8.80;;;;;;;13.66;46.68;100697.34;5054408;28;20056;-39
2022/03/08 08:31:10;;;;;;;7.75;7.05;;;;;;;13.62;46.86;100696.91;5036533;28;20086;-34
2022/03/08 08:33:36;;;;;;;8.63;7.82;;;;;;;13.66;46.57;100698.16;5054230;28;20028;-39
2022/03/08 08:36:03;;;;;;;8.95;8.10;;;;;;;13.67;46.90;100693.56;5054072;28;20061;-38
2022/03/08 08:38:28;;;;;;;9.48;8.57;;;;;;;13.60;47.14;100676.59;5036379;28;20158;-39
2022/03/08 08:40:54;;;;;;;8.70;8.00;;;;;;;13.65;47.31;100683.03;5054079;28;20067;-39
2022/03/08 08:43:20;;;;;;;9.00;8.18;;;;;;;13.70;47.40;100687.78;5036636;28;20028;-40
2022/03/08 08:45:51;;;;;;;10.00;8.48;;;;;;;13.74;47.59;100687.16;5053625;28;20032;-37
2022/03/08 08:48:18;;;;;;;8.07;7.43;;;;;;;13.74;47.84;100687.16;5036929;28;20037;-33
2022/03/08 08:50:44;;;;;;;11.30;8.88;;;;;;;13.72;47.93;100683.84;5035798;28;20115;-36
2022/03/08 08:53:10;;;;;;;12.82;9.15;;;;;;;13.72;48.16;100696.50;5035893;28;20424;-40
2022/03/08 08:55:37;;;;;;;13.10;9.52;;;;;;;13.74;48.37;100695.25;5035987;28;20416;-38
2022/03/08 08:58:04;;;;;;;10.18;8.82;;;;;;;13.88;48.30;100689.84;5053712;28;20025;-40
2022/03/08 09:00:30;;;;;;;14.85;9.40;;;;;;;13.97;48.38;100693.13;5054142;28;20076;-35
2022/03/08 09:02:57;;;;;;;12.60;9.98;;;;;;;14.02;48.31;100691.50;5036056;28;20061;-39
2022/03/08 09:05:23;;;;;;;10.68;9.48;;;;;;;14.05;48.18;100691.03;5019896;28;20147;-34
2022/03/08 09:07:48;;;;;;;11.80;9.45;;;;;;;14.06;48.09;100692.72;5035652;28;20488;-35
2022/03/08 09:10:16;;;;;;;8.80;7.90;;;;;;;14.09;48.66;100683.34;5054297;28;20151;-34
2022/03/08 09:12:47;;;;;;;14.05;9.07;;;;;;;14.06;48.29;100683.75;5053880;28;20025;-36
2022/03/08 09:15:12;;;;;;;12.13;9.20;;;;;;;14.10;48.64;100683.16;5054076;28;20480;-37
2022/03/08 09:17:38;;;;;;;11.43;8.68;;;;;;;14.10;48.26;100687.72;5053801;28;20064;-36
2022/03/08 09:20:06;;;;;;;8.75;8.00;;;;;;;14.12;48.02;100682.94;5053770;28;20252;-35
2022/03/08 09:22:32;;;;;;;9.77;8.48;;;;;;;14.11;48.58;100676.72;5053738;28;20025;-35
2022/03/08 09:24:58;;;;;;;10.23;7.70;;;;;;;14.08;48.26;100670.91;5053383;28;20078;-38
2022/03/08 09:27:24;;;;;;;9.25;7.53;;;;;;;14.13;48.44;100681.88;5054041;28;20116;-35
2022/03/08 09:29:50;;;;;;;9.48;8.38;;;;;;;14.12;48.28;100677.53;5057864;28;20033;-35
2022/03/08 09:32:17;;;;;;;10.48;9.48;;;;;;;14.16;48.00;100678.78;5057590;28;20078;-38
2022/03/08 09:34:43;;;;;;;10.07;9.15;;;;;;;14.23;47.67;100676.88;5057493;28;20067;-33
2022/03/08 09:37:09;;;;;;;10.23;9.30;;;;;;;14.68;47.04;100678.81;5039707;28;20114;-35
2022/03/08 09:39:35;;;;;;;10.40;8.95;;;;;;;15.34;45.81;100676.72;5058037;28;20397;-35
2022/03/08 09:42:02;;;;;;;10.00;8.98;;;;;;;15.95;44.91;100667.88;5057352;28;20029;-39
2022/03/08 09:44:29;;;;;;;10.20;9.20;;;;;;;16.51;43.84;100668.72;5057613;28;20033;-38
2022/03/08 09:46:55;;;;;;;9.88;9.05;;;;;;;16.98;43.06;100665.41;5039625;28;20033;-38
2022/03/08 09:49:20;;;;;;;14.15;10.30;;;;;;;17.43;42.72;100654.03;5057118;28;20385;-37
2022/03/08 09:51:46;;;;;;;10.85;9.85;;;;;;;17.85;41.91;100656.69;5057212;28;20052;-34
2022/03/08 09:54:12;;;;;;;10.05;9.15;;;;;;;18.27;41.57;100666.56;5057270;28;20041;-40
2022/03/08 09:56:38;;;;;;;10.65;9.38;;;;;;;18.64;40.58;100667.03;5039653;28;20535;-35
2022/03/08 09:59:04;;;;;;;10.35;9.25;;;;;;;18.97;40.29;100651.91;5057643;28;20104;-37
2022/03/08 10:01:31;;;;;;;9.88;8.98;;;;;;;19.31;39.98;100651.94;5039637;28;20448;-39
2022/03/08 10:03:57;;;;;;;10.63;9.57;;;;;;;19.57;39.07;100638.72;5039372;28;20029;-35
2022/03/08 10:06:23;;;;;;;9.20;8.30;;;;;;;19.95;38.81;100645.28;5056836;28;20025;-32
2022/03/08 10:08:48;;;;;;;10.13;9.20;;;;;;;20.23;38.26;100655.22;5022579;28;20064;-37
2022/03/08 10:11:16;;;;;;;9.18;8.38;;;;;;;20.51;38.14;100646.00;5057103;28;20033;-40
2022/03/08 10:13:49;;;;;;;7.85;7.20;;;;;;;20.78;37.47;100647.94;5039372;28;20108;-35
2022/03/08 10:16:28;;;;;;;7.43;6.82;;;;;;;21.01;37.21;100647.66;5039443;28;20033;-34
2022/03/08 10:18:57;;;;;;;8.50;7.60;;;;;;;21.25;36.35;100647.31;5025894;28;20468;-36
2022/03/08 10:21:31;;;;;;;8.98;7.90;;;;;;;21.37;35.28;100626.09;5057096;28;20029;-37
2022/03/08 10:24:00;;;;;;;8.82;7.70;;;;;;;21.62;35.75;100643.81;5056820;28;20033;-36
2022/03/08 10:26:26;;;;;;;7.95;7.35;;;;;;;21.75;35.76;100629.66;5022850;28;20029;-34
2022/03/08 10:28:55;;;;;;;9.43;8.60;;;;;;;21.95;34.93;100630.84;5056392;28;20075;-33
2022/03/08 10:31:21;;;;;;;8.45;7.75;;;;;;;22.06;35.14;100629.00;5038736;28;20041;-37
2022/03/08 10:33:48;;;;;;;7.63;7.03;;;;;;;22.26;35.12;100633.78;5056549;28;20381;-34
2022/03/08 10:36:17;;;;;;;8.20;7.50;;;;;;;22.38;34.72;100629.72;5056822;28;20032;-33
2022/03/08 10:39:04;;;;;;;8.73;8.02;;;;;;;22.53;32.14;100634.41;5056404;28;20155;-34
2022/03/08 10:41:30;;;;;;;8.27;7.57;;;;;;;22.65;34.16;100627.88;5042106;28;20385;-39
2022/03/08 10:43:58;;;;;;;9.30;8.48;;;;;;;22.78;33.66;100622.69;5056960;28;20037;-37
2022/03/08 10:46:26;;;;;;;9.48;8.05;;;;;;;22.83;33.59;100613.66;5038611;28;20385;-38
2022/03/08 10:48:54;;;;;;;8.77;7.95;;;;;;;22.96;33.04;100623.28;5056739;28;20113;-38
2022/03/08 10:51:21;;;;;;;7.72;7.13;;;;;;;23.05;33.60;100612.59;5051221;28;20048;-38
2022/03/08 10:53:48;;;;;;;7.63;7.00;;;;;;;23.10;33.39;100613.44;5075535;28;20029;-37
2022/03/08 10:56:23;;;;;;;8.35;7.65;;;;;;;23.14;31.54;100614.56;5076884;28;20041;-36
2022/03/08 10:58:52;;;;;;;7.90;7.30;;;;;;;23.20;32.99;100612.63;5059421;28;20046;-34
2022/03/08 11:01:19;;;;;;;7.82;7.20;;;;;;;23.27;32.98;100604.97;5074926;28;20024;-34
2022/03/08 11:04:01;;;;;;;7.65;6.95;;;;;;;23.41;30.54;100604.38;5076617;28;20040;-39
2022/03/08 11:06:28;;;;;;;8.60;7.63;;;;;;;23.51;32.82;100599.72;5076682;28;20074;-37
2022/03/08 11:08:55;;;;;;;8.13;7.53;;;;;;;23.64;32.62;100592.81;5075226;28;20028;-37
2022/03/08 11:11:22;;;;;;;9.48;8.75;;;;;;;23.69;31.62;100597.47;5076369;28;20495;-35
2022/03/08 11:13:51;;;;;;;8.98;8.07;;;;;;;23.78;32.04;100591.13;5075108;28;20120;-41